createdAt,value
2023-01-19T00:00:40.531Z,17.80
2023-01-19T00:03:15.789Z,17.27
2023-01-19T00:05:43.937Z,18.58
2023-01-19T00:08:15.014Z,16.27
2023-01-19T00:10:48.165Z,14.13
2023-01-19T00:13:16.026Z,16.58
2023-01-19T00:15:43.569Z,17.00
2023-01-19T00:18:11.315Z,15.77
2023-01-19T00:20:39.312Z,16.52
2023-01-19T00:23:08.091Z,15.30
2023-01-19T00:25:35.832Z,15.93
2023-01-19T00:28:03.230Z,14.00
2023-01-19T00:30:30.529Z,13.75
2023-01-19T00:32:58.489Z,16.00
2023-01-19T00:35:26.295Z,16.23
2023-01-19T00:37:53.492Z,14.93
2023-01-19T00:40:20.798Z,15.32
2023-01-19T00:42:48.579Z,14.65
2023-01-19T00:45:19.185Z,15.02
2023-01-19T00:47:47.057Z,15.88
2023-01-19T00:50:16.944Z,16.02
2023-01-19T00:52:45.101Z,16.08
2023-01-19T00:55:13.949Z,16.77
2023-01-19T00:57:41.869Z,17.05
2023-01-19T01:00:14.901Z,16.90
2023-01-19T01:02:43.325Z,16.33
2023-01-19T01:05:11.223Z,16.25
2023-01-19T01:07:40.752Z,17.27
2023-01-19T01:10:15.878Z,16.25
2023-01-19T01:12:56.432Z,17.05
2023-01-19T01:15:26.386Z,16.23
2023-01-19T01:17:53.764Z,17.98
2023-01-19T01:20:23.773Z,16.33
2023-01-19T01:22:55.611Z,18.00
2023-01-19T01:25:23.853Z,18.40
2023-01-19T01:27:51.339Z,17.90
2023-01-19T01:30:19.112Z,17.88
2023-01-19T01:32:46.319Z,16.63
2023-01-19T01:35:14.748Z,17.92
2023-01-19T01:37:42.697Z,17.93
2023-01-19T01:40:12.355Z,17.20
2023-01-19T01:42:40.541Z,18.20
2023-01-19T01:45:30.042Z,17.48
2023-01-19T01:48:15.021Z,16.88
2023-01-19T01:51:06.525Z,17.70
2023-01-19T01:53:34.625Z,16.60
2023-01-19T01:56:04.582Z,17.30
2023-01-19T01:58:32.452Z,18.30
2023-01-19T02:01:18.399Z,18.88
2023-01-19T02:03:45.752Z,17.25
2023-01-19T02:06:13.157Z,18.17
2023-01-19T02:09:21.210Z,16.90
2023-01-19T02:12:07.150Z,17.75
2023-01-19T02:14:37.349Z,16.63
2023-01-19T02:17:05.128Z,17.45
2023-01-19T02:19:41.221Z,17.33
2023-01-19T02:22:14.888Z,17.33
2023-01-19T02:24:42.686Z,16.98
2023-01-19T02:27:10.401Z,18.23
2023-01-19T02:29:37.734Z,18.38
2023-01-19T02:32:05.856Z,17.95
2023-01-19T02:34:33.484Z,18.10
2023-01-19T02:37:10.315Z,16.90
2023-01-19T02:39:53.508Z,18.52
2023-01-19T02:42:28.294Z,17.75
2023-01-19T02:44:56.689Z,17.88
2023-01-19T02:47:24.226Z,17.67
2023-01-19T02:49:58.419Z,18.17
2023-01-19T02:52:26.542Z,17.67
2023-01-19T02:54:58.099Z,16.90
2023-01-19T02:57:27.354Z,18.15
2023-01-19T03:03:01.954Z,16.15
2023-01-19T03:05:52.219Z,17.40
2023-01-19T03:08:43.643Z,17.70
2023-01-19T03:11:12.989Z,16.98
2023-01-19T03:13:50.069Z,17.83
2023-01-19T03:16:39.866Z,18.75
2023-01-19T03:19:37.801Z,18.42
2023-01-19T03:22:11.918Z,18.85
2023-01-19T03:24:43.280Z,18.25
2023-01-19T03:27:16.961Z,17.80
2023-01-19T03:29:50.992Z,18.00
2023-01-19T03:32:21.698Z,18.55
2023-01-19T03:34:49.657Z,18.50
2023-01-19T03:37:17.717Z,19.88
2023-01-19T03:39:45.016Z,19.10
2023-01-19T03:42:15.324Z,19.40
2023-01-19T03:44:43.888Z,18.50
2023-01-19T03:47:12.653Z,19.25
2023-01-19T03:49:41.764Z,19.10
2023-01-19T03:52:09.075Z,19.77
2023-01-19T03:54:36.554Z,18.83
2023-01-19T03:57:04.033Z,18.45
2023-01-19T03:59:31.282Z,20.60
2023-01-19T04:01:59.172Z,20.00
2023-01-19T04:04:26.397Z,19.95
2023-01-19T04:06:53.629Z,19.60
2023-01-19T04:09:20.850Z,20.15
2023-01-19T04:11:48.086Z,18.55
2023-01-19T04:14:15.312Z,20.13
2023-01-19T04:16:42.580Z,18.38
2023-01-19T04:19:09.775Z,19.08
2023-01-19T04:21:37.027Z,18.50
2023-01-19T04:24:04.317Z,20.15
2023-01-19T04:26:31.550Z,19.15
2023-01-19T04:28:59.188Z,20.00
2023-01-19T04:31:26.693Z,20.67
2023-01-19T04:33:53.946Z,21.15
2023-01-19T04:36:21.375Z,20.55
2023-01-19T04:38:48.893Z,21.10
2023-01-19T04:41:16.126Z,22.30
2023-01-19T04:43:43.383Z,20.23
2023-01-19T04:46:10.762Z,20.38
2023-01-19T04:48:38.496Z,21.48
2023-01-19T04:51:06.598Z,21.13
2023-01-19T04:53:33.846Z,20.52
2023-01-19T04:56:01.407Z,21.35
2023-01-19T04:58:28.684Z,21.42
2023-01-19T05:00:55.907Z,21.50
2023-01-19T05:03:25.616Z,21.35
2023-01-19T05:05:53.742Z,21.48
2023-01-19T05:08:21.063Z,21.13
2023-01-19T05:10:49.073Z,19.98
2023-01-19T05:13:17.657Z,20.60
2023-01-19T05:15:44.967Z,20.80
2023-01-19T05:18:12.325Z,20.30
2023-01-19T05:20:40.203Z,20.52
2023-01-19T05:23:07.545Z,19.15
2023-01-19T05:25:34.776Z,19.48
2023-01-19T05:28:03.183Z,21.17
2023-01-19T05:30:30.471Z,19.87
2023-01-19T05:32:57.769Z,19.52
2023-01-19T05:35:35.393Z,20.05
2023-01-19T05:38:03.562Z,19.57
2023-01-19T05:40:30.817Z,19.75
2023-01-19T05:43:01.188Z,19.20
2023-01-19T05:45:29.295Z,19.35
2023-01-19T05:47:56.895Z,20.00
2023-01-19T05:50:24.212Z,20.67
2023-01-19T05:52:53.559Z,21.50
2023-01-19T05:55:21.616Z,20.08
2023-01-19T05:57:49.048Z,21.70
2023-01-19T06:00:16.895Z,21.38
2023-01-19T06:02:44.425Z,21.80
2023-01-19T06:05:11.664Z,21.33
2023-01-19T06:07:39.386Z,21.08
2023-01-19T06:10:07.258Z,20.10
2023-01-19T06:12:34.690Z,20.95
2023-01-19T06:15:02.065Z,20.90
2023-01-19T06:17:29.356Z,20.13
2023-01-19T06:19:56.708Z,20.25
2023-01-19T06:22:24.647Z,19.80
2023-01-19T06:24:51.871Z,20.15
2023-01-19T06:27:19.099Z,20.83
2023-01-19T06:29:48.704Z,19.83
2023-01-19T06:32:16.430Z,20.30
2023-01-19T06:34:44.118Z,19.48
2023-01-19T06:37:11.719Z,19.27
2023-01-19T06:39:41.138Z,19.02
2023-01-19T06:42:08.906Z,19.55
2023-01-19T06:44:36.166Z,20.08
2023-01-19T06:47:14.920Z,19.40
2023-01-19T06:49:43.474Z,18.63
2023-01-19T06:52:16.660Z,20.20
2023-01-19T06:54:45.428Z,19.27
2023-01-19T06:57:13.491Z,19.73
2023-01-19T06:59:41.087Z,21.70
2023-01-19T07:02:26.639Z,18.70
2023-01-19T07:04:55.667Z,19.98
2023-01-19T07:07:23.091Z,21.45
2023-01-19T07:09:53.856Z,19.73
2023-01-19T07:12:22.047Z,18.40
2023-01-19T07:14:49.609Z,19.60
2023-01-19T07:17:18.381Z,23.00
2023-01-19T07:19:46.468Z,21.27
2023-01-19T07:22:13.683Z,25.67
2023-01-19T07:24:41.346Z,26.23
2023-01-19T07:27:08.641Z,26.40
2023-01-19T07:29:36.006Z,24.52
2023-01-19T07:32:03.497Z,22.25
2023-01-19T07:34:31.426Z,22.63
2023-01-19T07:36:58.723Z,19.98
2023-01-19T07:39:25.978Z,20.75
2023-01-19T07:41:53.305Z,22.20
2023-01-19T07:44:20.529Z,21.88
2023-01-19T07:46:47.772Z,19.13
2023-01-19T07:49:15.056Z,18.42
2023-01-19T07:51:42.404Z,18.55
2023-01-19T07:54:09.777Z,17.55
2023-01-19T07:56:37.076Z,16.98
2023-01-19T07:59:04.399Z,17.35
2023-01-19T08:01:31.763Z,17.08
2023-01-19T08:03:59.079Z,16.35
2023-01-19T08:06:37.649Z,17.50
2023-01-19T08:09:06.962Z,16.85
2023-01-19T08:11:34.361Z,17.75
2023-01-19T08:14:01.626Z,16.35
2023-01-19T08:16:29.025Z,17.02
2023-01-19T08:18:56.516Z,16.17
2023-01-19T08:21:23.738Z,16.05
2023-01-19T08:23:55.131Z,16.20
2023-01-19T08:26:29.883Z,15.18
2023-01-19T08:28:59.209Z,13.73
2023-01-19T08:33:54.029Z,13.93
2023-01-19T08:36:22.647Z,12.88
2023-01-19T08:38:50.072Z,12.80
2023-01-19T08:41:17.291Z,13.18
2023-01-19T08:43:47.784Z,12.82
2023-01-19T08:46:17.589Z,12.55
2023-01-19T08:48:45.525Z,12.57
2023-01-19T08:51:15.290Z,12.70
2023-01-19T08:53:42.999Z,10.77
2023-01-19T08:56:14.420Z,11.57
2023-01-19T08:58:46.686Z,11.52
2023-01-19T09:01:20.763Z,11.15
2023-01-19T09:03:50.131Z,10.68
2023-01-19T09:06:19.339Z,11.05
2023-01-19T09:08:47.625Z,10.27
2023-01-19T09:11:15.824Z,10.93
2023-01-19T09:13:43.445Z,10.90
2023-01-19T09:16:13.256Z,11.27
2023-01-19T09:18:40.918Z,10.35
2023-01-19T09:21:08.758Z,23.55
2023-01-19T09:23:36.065Z,24.65
2023-01-19T09:26:04.508Z,9.80
2023-01-19T09:28:31.748Z,9.43
2023-01-19T09:30:59.347Z,8.82
2023-01-19T09:33:26.710Z,9.18
2023-01-19T09:35:54.072Z,9.35
2023-01-19T09:38:22.444Z,9.30
2023-01-19T09:40:55.388Z,8.50
2023-01-19T09:43:47.884Z,8.80
2023-01-19T09:46:22.512Z,7.95
2023-01-19T09:48:53.217Z,9.07
2023-01-19T09:51:48.174Z,8.77
2023-01-19T09:54:29.624Z,8.15
2023-01-19T09:56:56.861Z,8.23
2023-01-19T09:59:32.465Z,8.50
2023-01-19T10:02:36.904Z,8.60
2023-01-19T10:05:17.400Z,9.20
2023-01-19T10:08:13.377Z,8.65
2023-01-19T10:10:43.070Z,7.93
2023-01-19T10:13:32.193Z,7.13
2023-01-19T10:16:26.923Z,8.73
2023-01-19T10:18:57.337Z,9.05
2023-01-19T10:21:35.320Z,8.40
2023-01-19T10:24:07.096Z,8.05
2023-01-19T10:26:39.288Z,8.18
2023-01-19T10:29:11.778Z,7.90
2023-01-19T10:31:39.690Z,8.07
2023-01-19T10:34:07.151Z,8.90
2023-01-19T10:36:35.409Z,8.65
2023-01-19T10:39:05.401Z,8.57
2023-01-19T10:41:40.967Z,8.75
2023-01-19T10:44:10.901Z,8.55
2023-01-19T10:46:46.148Z,9.60
2023-01-19T10:49:31.310Z,8.40
2023-01-19T10:51:59.694Z,9.27
2023-01-19T10:54:28.439Z,8.13
2023-01-19T10:57:03.484Z,8.60
2023-01-19T10:59:52.503Z,8.60
2023-01-19T11:02:29.581Z,8.25
2023-01-19T11:04:59.177Z,8.57
2023-01-19T11:07:30.730Z,7.85
2023-01-19T11:10:16.139Z,8.82
2023-01-19T11:13:00.349Z,8.80
2023-01-19T11:15:44.076Z,8.43
2023-01-19T11:18:30.793Z,8.25
2023-01-19T11:21:11.309Z,8.60
2023-01-19T11:23:43.840Z,8.68
2023-01-19T11:26:35.224Z,7.88
2023-01-19T11:29:04.098Z,8.30
2023-01-19T11:31:34.781Z,8.02
2023-01-19T11:34:21.812Z,9.15
2023-01-19T11:36:59.617Z,8.98
2023-01-19T11:39:29.435Z,9.48
2023-01-19T11:42:02.947Z,8.30
2023-01-19T11:44:35.764Z,8.70
2023-01-19T11:47:06.250Z,8.20
2023-01-19T11:49:55.647Z,8.02
2023-01-19T11:52:49.777Z,8.07
2023-01-19T11:55:36.906Z,8.70
2023-01-19T11:58:05.271Z,7.55
2023-01-19T12:00:53.189Z,7.50
2023-01-19T12:03:37.402Z,8.02
2023-01-19T12:06:09.313Z,7.55
2023-01-19T12:08:56.048Z,7.78
2023-01-19T12:11:26.754Z,7.57
2023-01-19T12:13:54.845Z,7.40
2023-01-19T12:16:23.851Z,7.88
2023-01-19T12:19:06.842Z,7.85
2023-01-19T12:21:34.076Z,7.55
2023-01-19T12:24:18.336Z,8.02
2023-01-19T12:26:56.647Z,8.27
2023-01-19T12:29:27.929Z,8.45
2023-01-19T12:32:13.993Z,8.65
2023-01-19T12:34:42.700Z,8.05
2023-01-19T12:37:31.145Z,7.93
2023-01-19T12:40:00.199Z,7.65
2023-01-19T12:42:27.823Z,7.53
2023-01-19T12:45:20.488Z,9.00
2023-01-19T12:47:52.977Z,8.38
2023-01-19T12:50:23.359Z,8.88
2023-01-19T12:52:57.124Z,8.98
2023-01-19T12:55:36.712Z,7.88
2023-01-19T12:58:23.167Z,8.77
2023-01-19T13:01:11.612Z,8.07
2023-01-19T13:04:02.209Z,8.70
2023-01-19T13:06:47.986Z,8.88
2023-01-19T13:09:35.619Z,8.45
2023-01-19T13:12:21.628Z,7.72
2023-01-19T13:14:50.972Z,8.50
2023-01-19T13:19:57.455Z,7.60
2023-01-19T13:22:47.183Z,8.60
2023-01-19T13:25:26.926Z,8.30
2023-01-19T13:27:54.721Z,7.28
2023-01-19T13:30:25.606Z,7.97
2023-01-19T13:32:54.659Z,8.32
2023-01-19T13:35:21.975Z,8.20
2023-01-19T13:37:49.654Z,7.78
2023-01-19T13:40:23.620Z,8.45
2023-01-19T13:42:52.800Z,8.38
2023-01-19T13:45:34.660Z,7.88
2023-01-19T13:48:17.858Z,8.70
2023-01-19T13:51:01.138Z,8.40
2023-01-19T13:53:29.514Z,8.38
2023-01-19T13:56:30.059Z,7.78
2023-01-19T13:59:12.702Z,8.77
2023-01-19T14:01:43.092Z,9.07
2023-01-19T14:04:31.355Z,8.63
2023-01-19T14:07:01.947Z,8.85
2023-01-19T14:09:31.882Z,9.13
2023-01-19T14:12:17.463Z,9.00
2023-01-19T14:14:49.533Z,9.02
2023-01-19T14:17:35.012Z,9.00
2023-01-19T14:20:02.305Z,9.10
2023-01-19T14:22:43.971Z,8.95
2023-01-19T14:25:34.152Z,9.50
2023-01-19T14:28:30.061Z,9.57
2023-01-19T14:31:03.082Z,9.18
2023-01-19T14:33:40.329Z,10.27
2023-01-19T14:36:33.566Z,10.70
2023-01-19T14:39:02.165Z,10.25
2023-01-19T14:41:44.506Z,10.68
2023-01-19T14:44:15.914Z,10.52
2023-01-19T14:46:47.859Z,10.93
2023-01-19T14:49:27.567Z,10.68
2023-01-19T14:51:56.288Z,10.57
2023-01-19T14:54:49.958Z,10.43
2023-01-19T14:57:17.193Z,11.05
2023-01-19T14:59:48.380Z,11.02
2023-01-19T15:02:16.283Z,11.25
2023-01-19T15:04:43.507Z,11.57
2023-01-19T15:07:19.760Z,10.77
2023-01-19T15:09:50.295Z,11.63
2023-01-19T15:12:20.656Z,11.98
2023-01-19T15:14:47.972Z,12.25
2023-01-19T15:17:25.430Z,11.43
2023-01-19T15:19:56.318Z,11.35
2023-01-19T15:22:26.820Z,11.73
2023-01-19T15:24:57.559Z,12.35
2023-01-19T15:27:29.937Z,12.82
2023-01-19T15:29:59.778Z,14.35
2023-01-19T15:32:27.332Z,12.98
2023-01-19T15:34:54.997Z,13.05
2023-01-19T15:37:25.092Z,14.48
2023-01-19T15:39:53.385Z,15.18
2023-01-19T15:42:23.404Z,13.52
2023-01-19T15:44:50.599Z,12.65
2023-01-19T15:47:20.294Z,14.00
2023-01-19T15:49:47.768Z,14.77
2023-01-19T15:52:22.762Z,13.57
2023-01-19T15:54:50.024Z,13.85
2023-01-19T15:57:18.624Z,13.93
2023-01-19T15:59:46.068Z,13.88
2023-01-19T16:02:13.420Z,13.55
2023-01-19T16:04:40.746Z,14.52
2023-01-19T16:07:08.167Z,13.20
2023-01-19T16:09:38.500Z,14.52
2023-01-19T16:12:05.907Z,13.70
2023-01-19T16:14:33.418Z,12.60
2023-01-19T16:17:01.734Z,13.88
2023-01-19T16:19:29.011Z,13.57
2023-01-19T16:21:56.213Z,12.00
2023-01-19T16:24:23.416Z,12.10
2023-01-19T16:26:50.852Z,12.63
2023-01-19T16:29:18.323Z,12.73
2023-01-19T16:31:46.301Z,13.23
2023-01-19T16:34:13.803Z,12.57
2023-01-19T16:36:42.009Z,12.25
2023-01-19T16:39:12.113Z,12.60
2023-01-19T16:41:39.658Z,12.18
2023-01-19T16:44:07.317Z,13.13
2023-01-19T16:46:36.833Z,12.70
2023-01-19T16:49:06.787Z,13.43
2023-01-19T16:51:34.652Z,12.05
2023-01-19T16:54:01.951Z,12.30
2023-01-19T16:56:29.705Z,12.45
2023-01-19T16:58:58.460Z,12.13
2023-01-19T17:01:37.630Z,12.20
2023-01-19T17:06:41.252Z,11.57
2023-01-19T17:09:11.981Z,12.95
2023-01-19T17:11:41.927Z,12.23
2023-01-19T17:14:17.794Z,13.07
2023-01-19T17:16:45.131Z,12.48
2023-01-19T17:19:17.343Z,11.45
2023-01-19T17:21:48.969Z,12.35
2023-01-19T17:24:16.779Z,12.38
2023-01-19T17:26:48.593Z,12.95
2023-01-19T17:29:16.808Z,13.07
2023-01-19T17:31:44.591Z,11.43
2023-01-19T17:34:11.939Z,12.05
2023-01-19T17:36:40.934Z,11.93
2023-01-19T17:39:11.239Z,11.02
2023-01-19T17:41:38.479Z,11.52
2023-01-19T17:44:06.910Z,11.93
2023-01-19T17:46:37.031Z,11.43
2023-01-19T17:49:05.853Z,11.25
2023-01-19T17:51:33.285Z,11.40
2023-01-19T17:54:00.752Z,12.23
2023-01-19T17:56:30.414Z,11.77
2023-01-19T17:58:57.995Z,11.75
2023-01-19T18:01:30.229Z,11.43
2023-01-19T18:03:58.304Z,11.30
2023-01-19T18:06:25.684Z,12.18
2023-01-19T18:08:53.188Z,12.20
2023-01-19T18:11:21.171Z,12.07
2023-01-19T18:13:49.988Z,11.50
2023-01-19T18:16:20.688Z,11.70
2023-01-19T18:18:49.718Z,12.68
2023-01-19T18:21:17.796Z,12.65
2023-01-19T18:23:45.679Z,11.50
2023-01-19T18:26:20.113Z,13.07
2023-01-19T18:28:48.141Z,12.18
2023-01-19T18:31:18.259Z,10.73
2023-01-19T18:33:48.512Z,10.38
2023-01-19T18:36:16.360Z,11.38
2023-01-19T18:38:44.149Z,11.88
2023-01-19T18:41:16.569Z,9.40
2023-01-19T18:43:44.242Z,10.38
2023-01-19T18:46:12.797Z,10.88
2023-01-19T18:48:40.144Z,10.63
2023-01-19T18:51:12.968Z,10.50
2023-01-19T18:53:44.040Z,10.10
2023-01-19T18:56:15.956Z,10.30
2023-01-19T18:58:43.591Z,10.25
2023-01-19T19:01:33.134Z,11.13
2023-01-19T19:04:00.766Z,10.00
2023-01-19T19:06:28.796Z,9.30
2023-01-19T19:08:57.363Z,9.50
2023-01-19T19:11:25.329Z,9.80
2023-01-19T19:13:54.319Z,9.60
2023-01-19T19:16:21.654Z,10.15
2023-01-19T19:18:52.045Z,10.90
2023-01-19T19:21:22.260Z,9.20
2023-01-19T19:23:53.935Z,9.05
2023-01-19T19:26:21.435Z,9.85
2023-01-19T19:28:48.837Z,9.55
2023-01-19T19:31:20.514Z,10.55
2023-01-19T19:33:48.853Z,9.85
2023-01-19T19:36:16.373Z,10.27
2023-01-19T19:38:44.791Z,9.88
2023-01-19T19:41:21.484Z,9.43
2023-01-19T19:43:48.750Z,9.55
2023-01-19T19:46:19.945Z,9.63
2023-01-19T19:48:47.991Z,9.98
2023-01-19T19:51:18.967Z,10.32
2023-01-19T19:53:49.071Z,10.15
2023-01-19T19:56:20.916Z,10.38
2023-01-19T19:58:48.743Z,10.30
2023-01-19T20:01:25.337Z,10.43
2023-01-19T20:03:54.224Z,10.32
2023-01-19T20:06:24.174Z,10.25
2023-01-19T20:08:53.387Z,10.50
2023-01-19T20:11:27.096Z,10.20
2023-01-19T20:13:54.818Z,10.18
2023-01-19T20:16:23.552Z,10.48
2023-01-19T20:18:53.939Z,10.73
2023-01-19T20:21:23.913Z,10.80
2023-01-19T20:23:52.973Z,11.23
2023-01-19T20:26:26.476Z,10.82
2023-01-19T20:28:57.369Z,11.70
2023-01-19T20:31:29.986Z,10.35
2023-01-19T20:33:59.960Z,10.30
2023-01-19T20:36:28.881Z,10.43
2023-01-19T20:38:56.587Z,10.57
2023-01-19T20:41:24.113Z,11.02
2023-01-19T20:43:55.627Z,10.68
2023-01-19T20:46:23.105Z,11.18
2023-01-19T20:48:52.965Z,9.70
2023-01-19T20:51:20.437Z,10.32
2023-01-19T20:53:48.044Z,9.85
2023-01-19T20:56:18.479Z,10.55
2023-01-19T20:58:49.983Z,9.77
2023-01-19T21:01:20.623Z,10.57
2023-01-19T21:03:48.301Z,10.30
2023-01-19T21:06:16.736Z,11.05
2023-01-19T21:08:44.298Z,10.32
2023-01-19T21:11:13.652Z,9.80
2023-01-19T21:16:13.155Z,9.93
2023-01-19T21:18:40.831Z,10.50
2023-01-19T21:21:14.977Z,10.13
2023-01-19T21:23:50.491Z,11.00
2023-01-19T21:28:47.589Z,10.70
2023-01-19T21:31:17.445Z,11.02
2023-01-19T21:33:44.717Z,9.95
2023-01-19T21:36:12.024Z,11.73
2023-01-19T21:38:39.795Z,11.38
2023-01-19T21:41:09.734Z,11.75
2023-01-19T21:43:39.183Z,11.43
2023-01-19T21:46:11.680Z,12.45
2023-01-19T21:48:39.045Z,13.68
2023-01-19T21:51:06.373Z,13.15
2023-01-19T21:53:39.925Z,12.43
2023-01-19T21:56:10.825Z,13.02
2023-01-19T21:58:38.213Z,12.75
2023-01-19T22:01:08.760Z,12.35
2023-01-19T22:03:36.140Z,13.05
2023-01-19T22:06:09.171Z,13.43
2023-01-19T22:08:37.306Z,14.55
2023-01-19T22:11:09.245Z,14.93
2023-01-19T22:13:40.221Z,14.18
2023-01-19T22:16:10.272Z,14.63
2023-01-19T22:18:43.111Z,14.43
2023-01-19T22:21:21.690Z,15.40
2023-01-19T22:23:51.672Z,13.73
2023-01-19T22:26:19.201Z,13.98
2023-01-19T22:28:46.421Z,13.65
2023-01-19T22:31:15.859Z,15.10
2023-01-19T22:33:44.027Z,14.25
2023-01-19T22:36:19.720Z,14.15
2023-01-19T22:38:52.470Z,13.07
2023-01-19T22:41:48.123Z,13.70
2023-01-19T22:44:17.561Z,13.48
2023-01-19T22:49:14.564Z,12.75
2023-01-19T22:51:42.413Z,13.98
2023-01-19T22:54:10.428Z,14.15
2023-01-19T22:56:38.769Z,13.07
2023-01-19T22:59:07.236Z,14.00
2023-01-19T23:01:37.542Z,14.50
2023-01-19T23:04:05.588Z,14.88
2023-01-19T23:06:34.860Z,13.70
2023-01-19T23:09:04.685Z,14.30
2023-01-19T23:11:37.950Z,15.70
2023-01-19T23:14:10.089Z,14.90
2023-01-19T23:16:37.333Z,14.90
2023-01-19T23:19:05.034Z,14.52
2023-01-19T23:21:32.487Z,14.63
2023-01-19T23:24:01.705Z,14.50
2023-01-19T23:26:43.963Z,14.73
2023-01-19T23:29:15.365Z,15.27
2023-01-19T23:31:48.256Z,14.88
2023-01-19T23:34:15.777Z,15.25
2023-01-19T23:36:43.701Z,15.80
2023-01-19T23:39:17.638Z,15.25
2023-01-19T23:41:45.119Z,14.38
2023-01-19T23:44:12.334Z,15.32
2023-01-19T23:46:39.798Z,14.88
2023-01-19T23:49:07.245Z,15.30
2023-01-19T23:51:35.061Z,15.65
2023-01-19T23:54:03.042Z,15.00
2023-01-19T23:56:35.061Z,16.02
2023-01-19T23:59:11.153Z,16.17
